Time;durP1;ratioP1;P1;durP2;ratioP2;P2;SDS_P1;SDS_P2;PMS_P1;PMS_P2;Temp;Humidity;BMP_temperature;BMP_pressure;BME280_temperature;BME280_humidity;BME280_pressure;Samples;Min_cycle;Max_cycle;Signal;HPM_P1;HPM_P2
2023/08/08 00:02:21;;;;;;;5.63;2.33;;;14.00;99.90;;;;;;5112579;27;20059;-85
2023/08/08 00:04:48;;;;;;;9.00;2.75;;;14.00;99.90;;;;;;5108491;27;20031;-86
2023/08/08 00:07:14;;;;;;;4.18;2.25;;;14.00;99.90;;;;;;5098282;27;20130;-87
2023/08/08 00:09:40;;;;;;;6.43;2.42;;;14.00;99.90;;;;;;5111218;27;20122;-87
2023/08/08 00:12:06;;;;;;;5.68;2.55;;;14.00;99.90;;;;;;5131573;27;20156;-86
2023/08/08 00:14:31;;;;;;;5.93;2.40;;;14.00;99.90;;;;;;5131497;27;20070;-85
2023/08/08 00:16:57;;;;;;;7.20;2.83;;;14.00;99.90;;;;;;5138052;27;20439;-86
2023/08/08 00:19:22;;;;;;;5.18;1.95;;;14.00;99.90;;;;;;5133445;27;20035;-86
2023/08/08 00:21:48;;;;;;;5.20;2.58;;;14.00;99.90;;;;;;5133577;27;20385;-86
2023/08/08 00:24:14;;;;;;;8.40;2.42;;;14.00;99.90;;;;;;5139061;27;20455;-86
2023/08/08 00:26:40;;;;;;;6.63;2.90;;;14.00;99.90;;;;;;5115123;27;20190;-86
2023/08/08 00:29:06;;;;;;;4.75;2.53;;;14.00;99.90;;;;;;5139387;27;20130;-86
2023/08/08 00:31:31;;;;;;;5.60;2.60;;;14.00;99.90;;;;;;5139380;27;20080;-86
2023/08/08 00:33:57;;;;;;;6.03;2.30;;;14.00;99.90;;;;;;5137595;27;20395;-86
2023/08/08 00:36:23;;;;;;;8.07;2.53;;;14.00;99.90;;;;;;5133029;27;20039;-85
2023/08/08 00:38:49;;;;;;;7.60;2.20;;;14.00;99.90;;;;;;5133452;27;20474;-86
2023/08/08 00:41:15;;;;;;;5.55;2.45;;;14.00;99.90;;;;;;5126739;27;20534;-85
2023/08/08 00:43:40;;;;;;;6.25;2.17;;;14.00;99.90;;;;;;5114724;27;20482;-86
2023/08/08 00:46:06;;;;;;;8.05;2.10;;;14.00;99.90;;;;;;5141420;27;20041;-86
2023/08/08 00:48:32;;;;;;;6.85;2.25;;;14.00;99.90;;;;;;5114413;27;20031;-86
2023/08/08 00:50:59;;;;;;;4.13;2.30;;;14.00;99.90;;;;;;5113492;27;20031;-86
2023/08/08 00:53:26;;;;;;;8.93;2.42;;;14.00;99.90;;;;;;5132335;27;20561;-86
2023/08/08 00:55:53;;;;;;;4.90;1.70;;;14.00;99.90;;;;;;5141959;27;20125;-86
2023/08/08 00:58:19;;;;;;;5.82;2.70;;;14.00;99.90;;;;;;5134821;27;20544;-86
2023/08/08 01:00:45;;;;;;;6.82;2.40;;;14.00;99.90;;;;;;5122350;27;20118;-86
2023/08/08 01:03:11;;;;;;;6.28;2.47;;;14.00;99.90;;;;;;5135494;27;20198;-86
2023/08/08 01:05:47;;;;;;;6.25;2.70;;;13.90;99.90;;;;;;5137469;27;20130;-86
2023/08/08 01:08:19;;;;;;;5.68;2.10;;;13.90;99.90;;;;;;5134229;27;20032;-86
2023/08/08 01:10:45;;;;;;;6.25;2.53;;;13.90;99.90;;;;;;5137935;27;20076;-87
2023/08/08 01:13:23;;;;;;;4.30;2.53;;;14.00;99.90;;;;;;5132975;27;20489;-86
2023/08/08 01:15:49;;;;;;;3.65;2.22;;;13.80;99.90;;;;;;5132544;27;20080;-86
2023/08/08 01:18:15;;;;;;;5.07;2.03;;;13.80;99.90;;;;;;5132219;27;20035;-86
2023/08/08 01:20:44;;;;;;;5.78;2.53;;;13.80;99.90;;;;;;5132439;27;20046;-86
2023/08/08 01:23:12;;;;;;;9.27;2.70;;;13.80;99.90;;;;;;5115313;27;20140;-85
2023/08/08 01:25:40;;;;;;;4.18;2.70;;;13.80;99.90;;;;;;5134184;27;20088;-86
2023/08/08 01:28:06;;;;;;;7.65;2.50;;;13.80;99.90;;;;;;5116530;27;20043;-86
2023/08/08 01:30:32;;;;;;;7.97;2.55;;;13.80;99.90;;;;;;5115774;27;20322;-85
2023/08/08 01:32:58;;;;;;;4.80;2.22;;;13.80;99.90;;;;;;5124219;27;20492;-86
2023/08/08 01:35:28;;;;;;;3.63;1.98;;;13.80;99.90;;;;;;5122971;27;20041;-85
2023/08/08 01:38:02;;;;;;;5.78;3.13;;;13.70;99.90;;;;;;5113758;27;20035;-85
2023/08/08 01:40:29;;;;;;;3.92;1.88;;;13.90;99.90;;;;;;5131401;27;20039;-85
2023/08/08 01:42:56;;;;;;;6.97;2.30;;;13.70;99.90;;;;;;5135486;27;20023;-85
2023/08/08 01:45:24;;;;;;;7.68;2.85;;;13.70;99.90;;;;;;5135120;27;20039;-86
2023/08/08 01:47:50;;;;;;;4.85;2.00;;;13.70;99.90;;;;;;5132024;27;20156;-86
2023/08/08 01:50:17;;;;;;;6.63;2.83;;;13.70;99.90;;;;;;5114173;27;20050;-86
2023/08/08 01:52:42;;;;;;;7.38;2.75;;;13.70;99.90;;;;;;5115027;27;20034;-86
2023/08/08 01:55:08;;;;;;;7.53;2.90;;;13.70;99.90;;;;;;5121864;27;20046;-87
2023/08/08 01:57:34;;;;;;;5.95;2.80;;;13.70;99.90;;;;;;5134229;27;20435;-86
2023/08/08 02:00:00;;;;;;;9.48;3.08;;;13.70;99.90;;;;;;5114985;27;20146;-86
2023/08/08 02:02:25;;;;;;;6.93;2.70;;;13.70;99.90;;;;;;5136818;27;20057;-85
2023/08/08 02:04:51;;;;;;;7.30;3.22;;;13.70;99.90;;;;;;5127552;27;20026;-86
2023/08/08 02:07:16;;;;;;;9.88;3.17;;;13.70;99.90;;;;;;5136668;27;20042;-86
2023/08/08 02:09:42;;;;;;;7.57;3.53;;;13.80;99.90;;;;;;5130657;27;20288;-85
2023/08/08 02:12:08;;;;;;;10.50;3.47;;;13.60;99.90;;;;;;5139025;27;20031;-86
2023/08/08 02:14:33;;;;;;;6.55;2.60;;;13.70;99.90;;;;;;5133421;27;20039;-85
2023/08/08 02:16:59;;;;;;;7.13;2.88;;;13.60;99.90;;;;;;5136984;27;20084;-86
2023/08/08 02:19:24;;;;;;;6.32;2.75;;;13.60;99.90;;;;;;5119737;27;20469;-85
2023/08/08 02:21:50;;;;;;;6.15;3.50;;;13.70;99.90;;;;;;5134196;27;20078;-86
2023/08/08 02:24:16;;;;;;;7.85;2.55;;;13.70;99.90;;;;;;5130611;27;20122;-85
2023/08/08 02:26:42;;;;;;;5.60;2.53;;;13.70;99.90;;;;;;5117119;27;20807;-85
2023/08/08 02:29:07;;;;;;;7.07;3.40;;;13.70;99.90;;;;;;5114043;27;20142;-86
2023/08/08 02:31:33;;;;;;;4.32;2.40;;;13.90;99.90;;;;;;5115924;27;20023;-86
2023/08/08 02:33:59;;;;;;;7.18;2.55;;;13.70;99.90;;;;;;5112432;27;20482;-86
2023/08/08 02:36:24;;;;;;;6.47;3.35;;;13.70;99.90;;;;;;5116503;27;20078;-85
2023/08/08 02:38:53;;;;;;;8.63;3.15;;;13.70;99.90;;;;;;5121703;27;20035;-85
2023/08/08 02:41:19;;;;;;;9.05;3.38;;;13.70;99.90;;;;;;5125647;27;20509;-85
2023/08/08 02:43:45;;;;;;;5.10;2.28;;;13.80;99.90;;;;;;5134757;27;20653;-86
2023/08/08 02:46:10;;;;;;;7.60;3.25;;;13.70;99.90;;;;;;5130694;27;20039;-86
2023/08/08 02:48:36;;;;;;;8.27;2.70;;;13.70;99.90;;;;;;5112235;27;20473;-86
2023/08/08 02:51:02;;;;;;;5.03;2.58;;;13.70;99.90;;;;;;5135451;27;20749;-85
2023/08/08 02:53:27;;;;;;;6.40;2.88;;;13.70;99.90;;;;;;5115840;27;20026;-86
2023/08/08 02:55:53;;;;;;;7.28;2.80;;;13.70;99.90;;;;;;5130315;27;20118;-86
2023/08/08 02:58:18;;;;;;;7.10;3.20;;;13.70;99.90;;;;;;5113042;27;20593;-86
2023/08/08 03:00:44;;;;;;;6.05;2.88;;;13.70;99.90;;;;;;5139168;27;20030;-86
2023/08/08 03:03:10;;;;;;;7.65;2.95;;;13.70;99.90;;;;;;5113676;27;20498;-86
2023/08/08 03:05:36;;;;;;;6.15;3.17;;;13.70;99.90;;;;;;5129787;27;20051;-86
2023/08/08 03:08:01;;;;;;;6.43;3.28;;;13.70;99.90;;;;;;5111829;27;20163;-85
2023/08/08 03:10:27;;;;;;;6.57;3.50;;;13.80;99.90;;;;;;5131251;27;20086;-86
2023/08/08 03:12:52;;;;;;;9.30;3.05;;;13.70;99.90;;;;;;5112883;27;21800;-85
2023/08/08 03:15:18;;;;;;;7.07;2.78;;;13.70;99.90;;;;;;5129878;27;20043;-85
2023/08/08 03:17:44;;;;;;;4.85;2.80;;;13.70;99.90;;;;;;5134770;27;20030;-86
2023/08/08 03:20:10;;;;;;;6.60;2.90;;;13.90;99.90;;;;;;5111994;27;20130;-86
2023/08/08 03:22:37;;;;;;;8.52;2.85;;;13.70;99.90;;;;;;5130332;27;20042;-86
2023/08/08 03:25:04;;;;;;;9.23;3.35;;;13.70;99.90;;;;;;5130006;27;20046;-86
2023/08/08 03:27:30;;;;;;;9.20;3.30;;;13.70;99.90;;;;;;5129742;27;20119;-85
2023/08/08 03:29:56;;;;;;;8.50;3.30;;;13.70;99.90;;;;;;5131583;27;20035;-85
2023/08/08 03:32:22;;;;;;;7.30;3.22;;;13.70;99.90;;;;;;5111642;27;20042;-85
2023/08/08 03:34:48;;;;;;;8.98;3.90;;;13.70;99.90;;;;;;5099728;28;20027;-86
2023/08/08 03:37:13;;;;;;;6.55;2.95;;;13.70;99.90;;;;;;5110960;27;20049;-86
2023/08/08 03:39:39;;;;;;;6.85;3.13;;;13.70;99.90;;;;;;5111527;27;20171;-85
2023/08/08 03:42:05;;;;;;;6.60;2.38;;;13.60;99.90;;;;;;5129775;27;20050;-85
2023/08/08 03:44:30;;;;;;;7.45;2.85;;;13.70;99.90;;;;;;5111499;28;20042;-86
2023/08/08 03:46:56;;;;;;;7.53;2.50;;;13.70;99.90;;;;;;5129512;27;20446;-86
2023/08/08 03:49:22;;;;;;;6.85;2.63;;;13.70;99.90;;;;;;5119002;27;20538;-85
2023/08/08 03:51:48;;;;;;;6.30;2.47;;;13.60;99.90;;;;;;5124258;27;20059;-86
2023/08/08 03:54:15;;;;;;;5.72;2.15;;;13.60;99.90;;;;;;5119814;27;20397;-86
2023/08/08 03:56:40;;;;;;;6.63;2.70;;;13.60;99.90;;;;;;5133513;27;20035;-85
2023/08/08 03:59:06;;;;;;;6.15;2.50;;;13.60;99.90;;;;;;5137416;27;20047;-85
2023/08/08 04:01:32;;;;;;;6.45;2.28;;;13.60;99.90;;;;;;5134861;27;20078;-85
2023/08/08 04:03:58;;;;;;;8.85;2.67;;;13.60;99.90;;;;;;5117200;27;20505;-86
2023/08/08 04:06:24;;;;;;;8.85;3.33;;;13.70;99.90;;;;;;5134847;27;20034;-85
2023/08/08 04:08:49;;;;;;;11.32;2.97;;;13.70;99.90;;;;;;5142404;27;20031;-85
2023/08/08 04:11:15;;;;;;;8.05;2.55;;;13.70;99.90;;;;;;5127321;27;20427;-86
2023/08/08 04:13:41;;;;;;;6.38;2.22;;;13.70;99.90;;;;;;5120295;27;20070;-86
2023/08/08 04:16:07;;;;;;;8.05;2.53;;;13.70;99.90;;;;;;5138493;27;20039;-85
2023/08/08 04:18:32;;;;;;;8.20;2.22;;;13.70;99.90;;;;;;5137223;27;20039;-86
2023/08/08 04:20:58;;;;;;;7.38;2.50;;;13.60;99.90;;;;;;5141819;27;20041;-86
2023/08/08 04:23:25;;;;;;;6.78;2.70;;;13.60;99.90;;;;;;5101766;27;20027;-85
2023/08/08 04:25:52;;;;;;;8.60;3.08;;;13.60;99.90;;;;;;5115599;27;20038;-86
2023/08/08 04:28:18;;;;;;;9.98;3.03;;;13.60;99.90;;;;;;5120485;27;20114;-85
2023/08/08 04:30:43;;;;;;;7.65;3.13;;;13.60;99.90;;;;;;5115548;27;20111;-86
2023/08/08 04:33:09;;;;;;;5.47;3.08;;;13.60;99.90;;;;;;5114843;27;20074;-86
2023/08/08 04:35:35;;;;;;;7.50;3.40;;;13.70;99.90;;;;;;5114152;27;20031;-85
2023/08/08 04:38:01;;;;;;;12.88;3.47;;;13.60;99.90;;;;;;5118380;27;20088;-86
2023/08/08 04:40:27;;;;;;;6.15;2.78;;;13.60;99.90;;;;;;5128049;27;20544;-86
2023/08/08 04:42:52;;;;;;;8.07;3.10;;;13.60;99.90;;;;;;5135678;27;20114;-86
2023/08/08 04:45:18;;;;;;;8.30;3.25;;;13.60;99.90;;;;;;5114863;27;20035;-85
2023/08/08 04:47:44;;;;;;;6.45;2.92;;;13.70;99.90;;;;;;5135351;27;20027;-86
2023/08/08 04:50:10;;;;;;;5.90;2.25;;;13.70;99.90;;;;;;5134079;27;20031;-86
2023/08/08 04:52:36;;;;;;;9.63;3.20;;;13.70;99.90;;;;;;5119901;27;20087;-85
2023/08/08 04:55:01;;;;;;;5.65;2.75;;;13.60;99.90;;;;;;5119671;27;20031;-86
2023/08/08 04:57:27;;;;;;;6.30;2.67;;;13.60;99.90;;;;;;5127058;27;20039;-86
2023/08/08 04:59:53;;;;;;;6.25;2.30;;;13.60;99.90;;;;;;5132218;27;20031;-86
2023/08/08 05:02:18;;;;;;;6.25;2.40;;;13.60;99.90;;;;;;5117380;27;20375;-86
2023/08/08 05:04:44;;;;;;;6.97;2.63;;;13.60;99.90;;;;;;5137180;27;20091;-86
2023/08/08 05:07:09;;;;;;;12.35;2.78;;;13.60;99.90;;;;;;5132608;27;20084;-85
2023/08/08 05:09:35;;;;;;;5.47;1.90;;;13.60;99.90;;;;;;5101220;27;20038;-85
2023/08/08 05:12:01;;;;;;;7.20;2.58;;;13.50;99.90;;;;;;5113628;27;20038;-85
2023/08/08 05:14:27;;;;;;;6.95;2.13;;;13.60;99.90;;;;;;5136974;27;20389;-86
2023/08/08 05:16:52;;;;;;;7.75;2.40;;;13.50;99.90;;;;;;5122049;27;20454;-86
2023/08/08 05:19:18;;;;;;;7.03;2.25;;;13.50;99.90;;;;;;5122079;27;20500;-86
2023/08/08 05:21:43;;;;;;;5.38;1.67;;;13.50;99.90;;;;;;5135438;27;20046;-85
2023/08/08 05:24:09;;;;;;;7.78;2.35;;;13.70;99.90;;;;;;5121499;27;20035;-86
2023/08/08 05:26:35;;;;;;;7.80;1.77;;;13.50;99.90;;;;;;5113465;27;20039;-86
2023/08/08 05:29:00;;;;;;;10.82;2.20;;;13.50;99.90;;;;;;5137454;27;20031;-86
2023/08/08 05:31:26;;;;;;;7.72;2.45;;;13.50;99.90;;;;;;5131477;27;20474;-86
2023/08/08 05:33:51;;;;;;;6.95;1.85;;;13.50;99.90;;;;;;5138082;27;20433;-85
2023/08/08 05:36:17;;;;;;;7.13;2.40;;;13.50;99.90;;;;;;5131998;27;20042;-86
2023/08/08 05:38:43;;;;;;;7.57;2.13;;;13.50;99.90;;;;;;5134156;27;20043;-86
2023/08/08 05:41:08;;;;;;;6.68;2.00;;;13.50;99.90;;;;;;5132183;27;20027;-86
2023/08/08 05:43:34;;;;;;;6.05;2.47;;;13.50;99.90;;;;;;5113124;27;20749;-86
2023/08/08 05:46:00;;;;;;;6.65;1.88;;;13.40;99.90;;;;;;5131382;27;20118;-85
2023/08/08 05:48:25;;;;;;;10.73;2.10;;;13.40;99.90;;;;;;5116097;27;20072;-86
2023/08/08 05:50:51;;;;;;;7.20;1.90;;;13.50;99.90;;;;;;5125031;27;20046;-86
2023/08/08 05:53:16;;;;;;;7.18;1.90;;;13.50;99.90;;;;;;5119198;27;20043;-86
2023/08/08 05:55:42;;;;;;;5.72;2.00;;;13.50;99.90;;;;;;5120719;27;20465;-86
2023/08/08 05:58:08;;;;;;;5.22;1.70;;;13.50;99.90;;;;;;5140381;27;20664;-86
2023/08/08 06:00:34;;;;;;;5.80;2.22;;;13.50;99.90;;;;;;5122363;27;20208;-86
2023/08/08 06:03:01;;;;;;;6.25;1.80;;;13.60;99.90;;;;;;5103195;27;20126;-86
2023/08/08 06:05:26;;;;;;;4.90;1.38;;;13.60;99.90;;;;;;5143286;27;20061;-86
2023/08/08 06:07:52;;;;;;;4.63;1.40;;;13.60;99.90;;;;;;5127553;27;20043;-86
2023/08/08 06:10:17;;;;;;;6.60;1.73;;;13.60;99.90;;;;;;5114605;27;20399;-86
2023/08/08 06:12:43;;;;;;;9.20;1.85;;;13.60;99.90;;;;;;5124996;27;20114;-86
2023/08/08 06:15:09;;;;;;;6.35;1.80;;;13.70;99.90;;;;;;5114594;27;20056;-85
2023/08/08 06:17:34;;;;;;;8.30;1.52;;;13.70;99.90;;;;;;5134155;27;20042;-85
2023/08/08 06:20:00;;;;;;;6.95;1.83;;;13.80;99.90;;;;;;5139794;27;20031;-86
2023/08/08 06:22:26;;;;;;;10.35;1.60;;;13.80;99.90;;;;;;5140633;27;20423;-85
2023/08/08 06:24:51;;;;;;;7.68;1.67;;;13.80;99.90;;;;;;5134372;27;20680;-84
2023/08/08 06:27:17;;;;;;;6.90;1.17;;;13.90;99.90;;;;;;5117352;27;20043;-84
2023/08/08 06:29:43;;;;;;;6.32;1.30;;;13.90;99.90;;;;;;5098195;27;20091;-84
2023/08/08 06:32:09;;;;;;;8.82;1.70;;;14.00;99.90;;;;;;5116161;27;20444;-84
2023/08/08 06:34:34;;;;;;;6.22;1.60;;;14.00;99.90;;;;;;5095032;27;20054;-84
2023/08/08 06:37:00;;;;;;;5.43;1.60;;;14.00;99.90;;;;;;5117955;27;20039;-84
2023/08/08 06:39:26;;;;;;;6.78;1.38;;;14.10;99.90;;;;;;5130240;27;20035;-85
2023/08/08 06:41:51;;;;;;;9.40;1.70;;;14.10;99.90;;;;;;5135764;27;20118;-84
2023/08/08 06:44:17;;;;;;;7.15;1.33;;;14.10;99.90;;;;;;5130174;27;20066;-84
2023/08/08 06:46:42;;;;;;;7.65;1.88;;;14.20;99.90;;;;;;5137606;27;20049;-85
2023/08/08 06:49:09;;;;;;;9.40;1.17;;;14.20;99.90;;;;;;5124704;27;20039;-84
2023/08/08 06:51:35;;;;;;;6.07;1.75;;;14.40;99.90;;;;;;5139828;27;20039;-84
2023/08/08 06:54:01;;;;;;;5.38;1.00;;;14.30;99.90;;;;;;5137309;27;20165;-85
2023/08/08 06:56:26;;;;;;;9.43;1.67;;;14.30;99.90;;;;;;5117344;27;20121;-85
2023/08/08 06:58:53;;;;;;;9.00;1.52;;;14.40;99.90;;;;;;5133627;27;20038;-84
2023/08/08 07:01:19;;;;;;;6.13;1.35;;;14.40;99.90;;;;;;5115313;27;20047;-85
2023/08/08 07:03:44;;;;;;;6.38;1.05;;;14.50;99.90;;;;;;5132860;27;20552;-83
2023/08/08 07:06:10;;;;;;;8.32;1.08;;;14.60;99.90;;;;;;5135113;27;20122;-85
2023/08/08 07:08:39;;;;;;;7.68;1.40;;;14.60;99.90;;;;;;5137914;27;20076;-84
2023/08/08 07:11:05;;;;;;;5.10;0.93;;;14.70;99.90;;;;;;5136693;27;20117;-84
2023/08/08 07:13:31;;;;;;;6.82;1.35;;;14.80;99.90;;;;;;5116200;27;20042;-84
2023/08/08 07:15:57;;;;;;;5.07;0.80;;;14.70;99.90;;;;;;5141912;27;20098;-85
2023/08/08 07:18:23;;;;;;;5.90;1.00;;;14.80;99.90;;;;;;5135345;27;20066;-85
2023/08/08 07:20:49;;;;;;;6.47;1.17;;;15.00;99.90;;;;;;5127395;27;20043;-84
2023/08/08 07:23:16;;;;;;;6.90;1.10;;;14.90;99.90;;;;;;5140994;27;20073;-85
2023/08/08 07:25:42;;;;;;;3.78;0.80;;;14.90;99.90;;;;;;5139823;27;20043;-85
2023/08/08 07:28:08;;;;;;;7.85;1.30;;;15.00;99.90;;;;;;5140125;27;20041;-84
2023/08/08 07:30:34;;;;;;;6.13;0.95;;;15.00;99.90;;;;;;5118638;27;20031;-84
2023/08/08 07:33:00;;;;;;;3.65;0.73;;;15.20;99.90;;;;;;5135754;27;20027;-85
2023/08/08 07:35:25;;;;;;;3.15;0.93;;;15.20;99.90;;;;;;5111471;27;20044;-87
2023/08/08 07:37:51;;;;;;;5.82;1.15;;;15.20;99.90;;;;;;5113211;27;20046;-86
2023/08/08 07:40:18;;;;;;;5.68;1.00;;;15.40;99.90;;;;;;5119201;27;20095;-85
2023/08/08 07:42:48;;;;;;;5.93;0.70;;;15.60;99.90;;;;;;5133326;27;20030;-83
2023/08/08 07:45:14;;;;;;;3.63;0.80;;;15.60;99.90;;;;;;5138660;27;20035;-83
2023/08/08 07:47:39;;;;;;;3.70;0.68;;;15.70;99.90;;;;;;5102962;27;20027;-84
2023/08/08 07:50:08;;;;;;;5.70;0.82;;;15.70;99.90;;;;;;5117348;27;20130;-83
2023/08/08 07:52:37;;;;;;;3.92;0.80;;;15.70;99.90;;;;;;5097152;27;20023;-84
2023/08/08 07:55:04;;;;;;;4.72;0.60;;;15.80;99.90;;;;;;5117503;27;20085;-83
2023/08/08 07:57:31;;;;;;;4.03;0.80;;;15.90;99.90;;;;;;5120379;28;20035;-85
2023/08/08 07:59:57;;;;;;;4.90;0.90;;;16.00;99.90;;;;;;5137533;27;20519;-84
2023/08/08 08:02:22;;;;;;;3.03;0.70;;;16.10;99.90;;;;;;5118873;27;20078;-80
2023/08/08 08:04:48;;;;;;;3.75;0.63;;;16.10;99.90;;;;;;5111548;27;20704;-85
2023/08/08 08:07:14;;;;;;;6.03;0.75;;;16.20;99.90;;;;;;5116387;27;20067;-84
2023/08/08 08:09:42;;;;;;;3.55;0.80;;;16.30;99.90;;;;;;5115803;27;20053;-82
2023/08/08 08:12:08;;;;;;;3.22;0.60;;;16.30;99.90;;;;;;5099869;27;20035;-83
2023/08/08 08:14:34;;;;;;;6.22;0.95;;;16.40;99.90;;;;;;5134096;27;20438;-83
2023/08/08 08:16:59;;;;;;;3.70;0.80;;;16.40;99.90;;;;;;5104474;28;20035;-82
2023/08/08 08:19:25;;;;;;;9.15;0.90;;;16.40;99.90;;;;;;5136378;27;20039;-82
2023/08/08 08:21:50;;;;;;;5.20;0.82;;;16.50;99.90;;;;;;5113040;27;20160;-83
2023/08/08 08:24:16;;;;;;;6.20;0.85;;;16.40;99.90;;;;;;5115068;27;20035;-83
2023/08/08 08:26:42;;;;;;;5.18;0.70;;;16.40;99.90;;;;;;5115161;27;20575;-83
2023/08/08 08:29:07;;;;;;;4.47;0.60;;;16.50;99.90;;;;;;5137926;27;20039;-82
2023/08/08 08:31:33;;;;;;;4.93;1.27;;;16.60;99.90;;;;;;5121418;27;20032;-82
2023/08/08 08:33:58;;;;;;;3.33;0.90;;;16.60;99.90;;;;;;5103026;27;20145;-84
2023/08/08 08:36:25;;;;;;;5.60;0.88;;;16.70;99.90;;;;;;5105918;27;20057;-82
2023/08/08 08:38:51;;;;;;;4.05;0.63;;;16.70;99.90;;;;;;5120673;27;20047;-82
2023/08/08 08:41:19;;;;;;;6.10;1.00;;;16.70;99.90;;;;;;5117931;27;20065;-84
2023/08/08 08:43:46;;;;;;;6.30;0.98;;;16.80;99.90;;;;;;5139074;27;20038;-85
2023/08/08 08:46:14;;;;;;;4.97;0.70;;;16.80;99.90;;;;;;5138878;27;20038;-84
2023/08/08 08:48:41;;;;;;;11.07;1.00;;;16.90;99.90;;;;;;5138236;27;20113;-82
2023/08/08 08:51:07;;;;;;;6.70;0.80;;;16.90;99.90;;;;;;5109642;27;20039;-85
2023/08/08 08:53:34;;;;;;;6.57;0.77;;;16.90;99.90;;;;;;5125624;27;20046;-82
2023/08/08 08:56:01;;;;;;;3.92;0.70;;;16.80;99.90;;;;;;5137429;27;20446;-84
2023/08/08 08:58:28;;;;;;;7.85;1.10;;;16.80;99.90;;;;;;5127847;27;20077;-84
2023/08/08 09:00:54;;;;;;;3.95;0.90;;;16.90;99.90;;;;;;5112064;27;20060;-84
2023/08/08 09:03:20;;;;;;;5.30;1.08;;;16.90;99.90;;;;;;5133177;27;20058;-84
2023/08/08 09:05:45;;;;;;;6.50;1.08;;;17.00;99.90;;;;;;5122196;27;20030;-84
2023/08/08 09:08:15;;;;;;;6.18;1.67;;;17.10;99.90;;;;;;5129316;27;20385;-82
2023/08/08 09:10:41;;;;;;;4.35;0.95;;;17.20;99.90;;;;;;5123277;27;20046;-83
2023/08/08 09:13:06;;;;;;;4.75;1.27;;;17.20;99.90;;;;;;5122453;27;20051;-83
2023/08/08 09:15:33;;;;;;;7.78;1.80;;;17.10;99.90;;;;;;5119821;27;20046;-84
2023/08/08 09:18:00;;;;;;;6.25;1.00;;;17.20;99.90;;;;;;5140878;27;20043;-84
2023/08/08 09:20:28;;;;;;;10.00;1.35;;;17.30;99.90;;;;;;5119767;27;20035;-84
2023/08/08 09:22:54;;;;;;;5.95;1.08;;;17.40;99.90;;;;;;5127345;27;20113;-84
2023/08/08 09:25:19;;;;;;;4.15;0.70;;;17.60;99.90;;;;;;5110801;27;20164;-84
2023/08/08 09:27:45;;;;;;;2.72;0.77;;;17.60;99.90;;;;;;5138439;27;20118;-84
2023/08/08 09:30:11;;;;;;;9.43;1.10;;;17.50;99.90;;;;;;5122338;27;20049;-83
2023/08/08 09:32:37;;;;;;;3.38;0.73;;;17.30;99.90;;;;;;5141957;27;20087;-85
2023/08/08 09:35:03;;;;;;;3.60;0.70;;;17.30;99.90;;;;;;5128427;27;20043;-82
2023/08/08 09:37:29;;;;;;;6.72;1.10;;;17.30;99.90;;;;;;5114325;27;20057;-85
2023/08/08 09:39:59;;;;;;;5.43;1.25;;;17.40;99.90;;;;;;5105586;27;20035;-83
2023/08/08 09:42:27;;;;;;;5.57;0.90;;;17.40;99.90;;;;;;5111029;27;20178;-84
2023/08/08 09:44:53;;;;;;;3.90;0.65;;;17.40;99.90;;;;;;5113234;27;20379;-82
2023/08/08 09:47:20;;;;;;;3.50;0.85;;;17.50;99.90;;;;;;5123971;27;20082;-84
2023/08/08 09:49:46;;;;;;;3.97;0.70;;;17.60;99.90;;;;;;5125667;27;20035;-82
2023/08/08 09:52:12;;;;;;;4.30;1.08;;;17.70;99.90;;;;;;5118262;27;20039;-83
2023/08/08 09:54:39;;;;;;;7.65;1.05;;;17.80;99.90;;;;;;5127049;27;20031;-84
2023/08/08 09:57:06;;;;;;;5.97;1.00;;;18.10;99.90;;;;;;5111458;27;20051;-84
2023/08/08 09:59:32;;;;;;;5.32;1.08;;;18.10;99.90;;;;;;5124250;27;20189;-84
2023/08/08 10:01:59;;;;;;;4.75;1.15;;;18.10;99.90;;;;;;5117859;27;20327;-84
2023/08/08 10:04:25;;;;;;;7.03;0.90;;;18.10;99.90;;;;;;5137806;27;20035;-83
2023/08/08 10:06:51;;;;;;;6.82;1.13;;;18.00;99.90;;;;;;5143680;27;20117;-86
2023/08/08 10:09:17;;;;;;;9.55;1.00;;;18.00;99.90;;;;;;5116161;27;20038;-85
2023/08/08 10:11:44;;;;;;;4.45;0.90;;;18.00;99.90;;;;;;5124702;27;20481;-84
2023/08/08 10:14:11;;;;;;;4.00;0.90;;;18.20;99.90;;;;;;5110312;27;20042;-86
2023/08/08 10:16:41;;;;;;;5.95;1.08;;;18.40;99.90;;;;;;5120059;27;20476;-84
2023/08/08 10:19:07;;;;;;;6.18;1.00;;;18.40;99.90;;;;;;5121392;27;20050;-85
2023/08/08 10:21:40;;;;;;;3.95;0.70;;;18.30;99.90;;;;;;5117438;27;20047;-86
2023/08/08 10:24:08;;;;;;;2.40;0.60;;;18.20;99.90;;;;;;5135123;27;20154;-83
2023/08/08 10:26:50;;;;;;;4.55;1.15;;;18.10;99.90;;;;;;5126446;27;20503;-85
2023/08/08 10:29:18;;;;;;;4.88;0.80;;;18.10;99.90;;;;;;5134084;27;20047;-87
2023/08/08 10:31:52;;;;;;;3.28;0.88;;;18.20;99.90;;;;;;5136209;27;20039;-87
2023/08/08 10:34:21;;;;;;;4.50;0.60;;;18.40;99.90;;;;;;5114970;27;20397;-86
2023/08/08 10:36:52;;;;;;;5.93;1.00;;;18.50;99.90;;;;;;5117552;27;20062;-88
2023/08/08 10:39:19;;;;;;;4.88;0.90;;;18.60;99.90;;;;;;5135617;27;20084;-87
2023/08/08 10:41:50;;;;;;;5.13;1.10;;;18.80;99.90;;;;;;5136689;27;20156;-88
2023/08/08 10:44:24;;;;;;;5.57;1.13;;;18.90;99.90;;;;;;5117260;27;20134;-86
2023/08/08 10:46:51;;;;;;;3.72;0.75;;;18.90;99.90;;;;;;5140525;27;20057;-85
2023/08/08 10:49:17;;;;;;;2.80;1.00;;;19.00;99.90;;;;;;5144871;27;20507;-87
2023/08/08 10:51:46;;;;;;;6.38;1.05;;;19.00;99.90;;;;;;5121672;27;20512;-87
2023/08/08 10:54:28;;;;;;;3.72;1.10;;;19.00;99.90;;;;;;5121505;27;20171;-87
2023/08/08 10:56:58;;;;;;;2.70;0.70;;;19.10;99.90;;;;;;5136344;27;20035;-88
2023/08/08 10:59:25;;;;;;;3.00;0.80;;;19.10;99.90;;;;;;5119828;27;20488;-86
2023/08/08 11:01:52;;;;;;;6.18;1.05;;;19.10;99.90;;;;;;5114979;27;20050;-86
2023/08/08 11:04:24;;;;;;;5.00;0.70;;;19.10;99.90;;;;;;5126003;27;20047;-86
2023/08/08 11:06:50;;;;;;;5.57;1.27;;;19.00;99.90;;;;;;5122781;27;20485;-86
2023/08/08 11:09:17;;;;;;;5.00;0.75;;;19.20;99.90;;;;;;5096522;27;20039;-87
2023/08/08 11:11:44;;;;;;;5.18;0.93;;;19.30;99.90;;;;;;5119616;27;20122;-88
2023/08/08 11:14:10;;;;;;;6.50;1.20;;;19.40;99.90;;;;;;5132878;27;20039;-86
2023/08/08 11:16:36;;;;;;;3.50;0.90;;;19.50;99.90;;;;;;5137146;27;20049;-84
2023/08/08 11:19:02;;;;;;;4.00;0.77;;;19.70;99.90;;;;;;5118670;27;20393;-85
2023/08/08 11:21:28;;;;;;;5.40;0.85;;;19.70;99.90;;;;;;5118670;27;20049;-85
2023/08/08 11:23:53;;;;;;;6.43;0.93;;;19.70;99.90;;;;;;5135958;27;20043;-86
2023/08/08 11:26:19;;;;;;;8.48;1.00;;;19.70;99.90;;;;;;5122503;27;20080;-84
2023/08/08 11:28:51;;;;;;;5.50;0.80;;;19.80;99.90;;;;;;5136474;27;20180;-86
2023/08/08 11:31:20;;;;;;;4.28;0.90;;;19.70;99.90;;;;;;5133976;27;20035;-84
2023/08/08 11:33:48;;;;;;;5.93;1.10;;;19.80;99.90;;;;;;5115300;27;20031;-84
2023/08/08 11:36:14;;;;;;;8.20;1.10;;;19.90;99.90;;;;;;5140679;27;20111;-84
2023/08/08 11:38:43;;;;;;;4.25;0.73;;;19.80;99.90;;;;;;5135098;27;20091;-86
2023/08/08 11:41:13;;;;;;;3.80;0.82;;;19.70;99.90;;;;;;5118160;27;20069;-85
2023/08/08 11:43:39;;;;;;;3.97;0.90;;;19.70;99.90;;;;;;5139742;27;20054;-86
2023/08/08 11:46:09;;;;;;;4.28;0.75;;;19.80;99.90;;;;;;5122530;27;20049;-89
2023/08/08 11:48:35;;;;;;;7.93;1.10;;;19.90;99.90;;;;;;5141428;27;20043;-80
2023/08/08 11:51:04;;;;;;;6.95;1.00;;;20.00;99.90;;;;;;5130904;27;20049;-86
2023/08/08 11:53:29;;;;;;;4.70;0.82;;;20.00;99.90;;;;;;5111061;27;20028;-83
2023/08/08 11:55:57;;;;;;;2.63;0.70;;;20.10;99.90;;;;;;5132831;27;20081;-85
2023/08/08 11:58:25;;;;;;;2.80;0.88;;;20.30;99.90;;;;;;5111129;27;20051;-86
2023/08/08 12:00:51;;;;;;;4.70;0.73;;;20.40;99.90;;;;;;5129517;27;20452;-84
2023/08/08 12:03:18;;;;;;;3.08;0.80;;;20.50;99.90;;;;;;5128954;27;20062;-86
2023/08/08 12:05:48;;;;;;;5.22;0.80;;;20.60;99.90;;;;;;5129660;27;20058;-85
2023/08/08 12:08:21;;;;;;;5.68;0.77;;;20.80;99.90;;;;;;5131107;27;20035;-85
2023/08/08 12:10:56;;;;;;;5.22;0.85;;;20.80;99.90;;;;;;5118538;27;20046;-85
2023/08/08 12:13:22;;;;;;;5.07;0.85;;;20.70;99.90;;;;;;5120518;27;20576;-85
2023/08/08 12:15:49;;;;;;;5.38;0.75;;;20.50;99.90;;;;;;5110127;27;20045;-85
2023/08/08 12:18:18;;;;;;;4.57;0.52;;;20.40;99.90;;;;;;5133273;27;20114;-85
2023/08/08 12:20:44;;;;;;;5.93;0.90;;;20.40;99.90;;;;;;5118878;27;20063;-85
2023/08/08 12:23:10;;;;;;;4.03;1.00;;;20.40;99.90;;;;;;5135717;27;20089;-85
2023/08/08 12:25:36;;;;;;;6.40;0.80;;;20.40;99.90;;;;;;5133369;27;20051;-85
2023/08/08 12:28:02;;;;;;;4.72;0.60;;;20.40;99.90;;;;;;5114844;27;20040;-85
2023/08/08 12:30:28;;;;;;;6.57;0.80;;;20.40;99.90;;;;;;5133112;27;20126;-85
2023/08/08 12:32:54;;;;;;;4.30;0.88;;;20.40;99.90;;;;;;5133200;27;20110;-85
2023/08/08 12:35:20;;;;;;;3.65;0.70;;;20.40;99.90;;;;;;5133016;27;20081;-85
2023/08/08 12:37:46;;;;;;;3.40;0.57;;;20.50;99.90;;;;;;5133434;27;20035;-85
2023/08/08 12:40:12;;;;;;;4.95;0.75;;;20.60;99.90;;;;;;5116986;27;20054;-86
2023/08/08 12:42:38;;;;;;;4.70;1.17;;;20.80;99.90;;;;;;5134895;27;20035;-84